createdAt,value
2018-07-10T00:00:07.931Z,79.66
2018-07-10T00:05:38.248Z,78.32
2018-07-10T00:10:40.224Z,78.47
2018-07-10T00:15:25.127Z,79.11
2018-07-10T00:20:09.176Z,78.85
2018-07-10T00:24:56.026Z,79.56
2018-07-10T00:29:39.493Z,80.03
2018-07-10T00:34:26.437Z,79.32
2018-07-10T00:39:11.086Z,78.72
2018-07-10T00:43:54.833Z,79.00
2018-07-10T00:48:39.451Z,79.30
2018-07-10T00:53:22.972Z,79.56
2018-07-10T00:58:07.480Z,78.54
2018-07-10T01:02:51.032Z,79.38
2018-07-10T01:07:34.604Z,80.37
2018-07-10T01:12:18.197Z,79.37
2018-07-10T01:17:04.832Z,80.39
2018-07-10T01:21:49.046Z,79.37
2018-07-10T01:26:41.598Z,80.54
2018-07-10T01:31:25.041Z,80.55
2018-07-10T01:36:09.829Z,80.56
2018-07-10T01:40:53.227Z,79.72
2018-07-10T01:45:37.947Z,79.82
2018-07-10T01:50:21.420Z,80.65
2018-07-10T01:55:05.865Z,81.19
2018-07-10T01:59:50.818Z,80.53
2018-07-10T02:04:38.439Z,81.28
2018-07-10T02:09:22.025Z,82.38
2018-07-10T02:14:05.595Z,80.93
2018-07-10T02:18:48.948Z,81.62
2018-07-10T02:23:42.362Z,81.90
2018-07-10T02:28:26.783Z,81.23
2018-07-10T02:33:10.221Z,80.95
2018-07-10T02:37:53.829Z,81.28
2018-07-10T02:42:37.225Z,80.35
2018-07-10T02:47:22.101Z,80.53
2018-07-10T02:52:07.169Z,81.06
2018-07-10T02:56:54.357Z,80.47
2018-07-10T03:01:37.853Z,80.21
2018-07-10T03:06:22.378Z,80.00
2018-07-10T03:11:06.596Z,80.07
2018-07-10T03:15:53.744Z,81.00
2018-07-10T03:20:37.298Z,81.18
2018-07-10T03:25:24.644Z,81.22
2018-07-10T03:30:08.326Z,80.21
2018-07-10T03:34:53.018Z,81.47
2018-07-10T03:39:40.520Z,81.15
2018-07-10T03:44:28.920Z,80.29
2018-07-10T03:49:12.321Z,80.53
2018-07-10T03:53:56.007Z,79.75
2018-07-10T03:58:39.532Z,79.77
2018-07-10T04:03:29.156Z,79.70
2018-07-10T04:08:17.770Z,80.58
2018-07-10T04:13:12.617Z,80.32
2018-07-10T04:18:08.748Z,80.44
2018-07-10T04:22:55.362Z,81.02
2018-07-10T04:27:52.989Z,80.34
2018-07-10T04:32:38.793Z,81.53
2018-07-10T04:37:27.770Z,82.25
2018-07-10T04:42:28.500Z,83.25
2018-07-10T04:47:22.938Z,84.09
2018-07-10T04:52:23.707Z,82.67
2018-07-10T04:57:14.498Z,82.55
2018-07-10T05:01:57.882Z,83.93
2018-07-10T05:06:41.480Z,82.73
2018-07-10T05:11:25.688Z,82.76
2018-07-10T05:16:12.228Z,83.42
2018-07-10T05:20:55.716Z,84.47
2018-07-10T05:25:46.799Z,86.05
2018-07-10T05:30:30.341Z,85.78
2018-07-10T05:35:14.881Z,84.92
2018-07-10T05:40:01.683Z,84.98
2018-07-10T05:44:46.365Z,85.85
2018-07-10T05:49:32.309Z,86.04
2018-07-10T05:54:15.991Z,86.50
2018-07-10T05:59:02.621Z,86.42
2018-07-10T06:03:49.592Z,86.10
2018-07-10T06:08:33.204Z,88.23
2018-07-10T06:13:16.805Z,86.36
2018-07-10T06:18:01.276Z,86.75
2018-07-10T06:22:44.914Z,86.54
2018-07-10T06:27:39.984Z,87.23
2018-07-10T06:32:23.378Z,87.46
2018-07-10T06:37:11.537Z,86.65
2018-07-10T06:42:01.445Z,87.13
2018-07-10T06:46:49.005Z,87.25
2018-07-10T06:51:32.593Z,87.18
2018-07-10T06:56:27.626Z,87.35
2018-07-10T07:01:11.168Z,87.86
2018-07-10T07:05:58.471Z,88.52
2018-07-10T07:10:42.070Z,89.70
2018-07-10T07:15:29.348Z,90.28
2018-07-10T07:20:12.812Z,90.95
2018-07-10T07:25:01.261Z,91.33
2018-07-10T07:29:44.655Z,89.54
2018-07-10T07:34:35.249Z,87.03
2018-07-10T07:39:18.778Z,86.72
2018-07-10T07:44:06.283Z,87.66
2018-07-10T07:48:49.565Z,85.42
2018-07-10T07:53:36.634Z,80.30
2018-07-10T07:58:20.092Z,83.64
2018-07-10T08:03:03.511Z,83.90
2018-07-10T08:07:47.166Z,84.96
2018-07-10T08:12:32.168Z,81.85
2018-07-10T08:17:16.899Z,78.32
2018-07-10T08:22:00.371Z,81.36
2018-07-10T08:26:46.692Z,80.90
2018-07-10T08:31:30.904Z,76.92
2018-07-10T08:36:15.450Z,78.34
2018-07-10T08:40:59.095Z,79.58
2018-07-10T08:45:47.972Z,79.78
2018-07-10T08:50:31.525Z,76.69
2018-07-10T08:55:19.189Z,71.73
2018-07-10T09:00:03.311Z,74.44
2018-07-10T09:04:48.042Z,77.02
2018-07-10T09:09:31.567Z,76.89
2018-07-10T09:14:17.046Z,75.02
2018-07-10T09:19:00.444Z,74.63
2018-07-10T09:23:47.119Z,75.36
2018-07-10T09:28:37.817Z,75.42
2018-07-10T09:33:22.484Z,75.08
2018-07-10T09:38:05.912Z,73.37
2018-07-10T09:42:55.239Z,74.54
2018-07-10T09:47:38.780Z,75.11
2018-07-10T09:52:22.293Z,70.74
2018-07-10T09:57:06.065Z,69.22
2018-07-10T10:01:50.617Z,69.85
2018-07-10T10:06:37.087Z,70.12
2018-07-10T10:11:20.490Z,69.06
2018-07-10T10:16:07.553Z,68.55
2018-07-10T10:20:51.009Z,65.68
2018-07-10T10:25:54.160Z,66.30
2018-07-10T10:30:38.981Z,65.61
2018-07-10T10:35:26.123Z,65.40
2018-07-10T10:40:09.573Z,61.32
2018-07-10T10:44:59.999Z,64.74
2018-07-10T10:49:43.618Z,57.03
2018-07-10T10:54:31.066Z,57.92
2018-07-10T10:59:15.375Z,57.36
2018-07-10T11:03:59.113Z,55.63
2018-07-10T11:08:42.573Z,57.59
2018-07-10T11:13:29.858Z,58.52
2018-07-10T11:20:22.369Z,56.97
2018-07-10T11:25:08.765Z,56.23
2018-07-10T11:29:52.237Z,56.74
2018-07-10T11:34:36.524Z,54.75
2018-07-10T11:39:19.847Z,54.12
2018-07-10T11:44:08.903Z,55.75
2018-07-10T11:48:52.465Z,55.18
2018-07-10T11:53:39.542Z,56.40
2018-07-10T11:58:22.999Z,57.93
2018-07-10T12:03:11.797Z,55.41
2018-07-10T12:07:58.391Z,55.51
2018-07-10T12:12:43.196Z,55.37
2018-07-10T12:17:26.647Z,54.45
2018-07-10T12:22:10.054Z,53.13
2018-07-10T12:26:54.897Z,53.88
2018-07-10T12:31:38.449Z,55.17
2018-07-10T12:36:22.160Z,53.47
2018-07-10T12:41:05.655Z,53.87
2018-07-10T12:45:50.202Z,51.05
2018-07-10T12:50:33.698Z,53.68
2018-07-10T12:55:24.372Z,55.00
2018-07-10T13:00:07.965Z,54.09
2018-07-10T13:04:57.149Z,53.30
2018-07-10T13:09:40.707Z,53.17
2018-07-10T13:14:25.427Z,52.97
2018-07-10T13:19:08.874Z,53.90
2018-07-10T13:23:52.409Z,51.68
2018-07-10T13:28:35.972Z,52.63
2018-07-10T13:33:20.755Z,52.72
2018-07-10T13:38:05.113Z,55.87
2018-07-10T13:42:58.872Z,56.89
2018-07-10T13:47:42.373Z,60.19
2018-07-10T13:52:27.085Z,61.56
2018-07-10T13:57:10.598Z,63.23
2018-07-10T14:01:54.164Z,62.11
2018-07-10T14:06:38.411Z,62.67
2018-07-10T14:11:36.618Z,62.71
2018-07-10T14:16:24.110Z,63.36
2018-07-10T14:21:09.109Z,64.30
2018-07-10T14:25:58.463Z,64.21
2018-07-10T14:30:41.979Z,64.15
2018-07-10T14:35:29.281Z,63.41
2018-07-10T14:40:12.782Z,60.82
2018-07-10T14:44:56.410Z,61.62
2018-07-10T14:49:41.059Z,61.59
2018-07-10T14:54:25.546Z,62.45
2018-07-10T14:59:09.721Z,61.33
2018-07-10T15:03:53.459Z,59.62
2018-07-10T15:08:37.038Z,59.50
2018-07-10T15:13:21.841Z,59.85
2018-07-10T15:18:10.771Z,59.18
2018-07-10T15:22:57.949Z,61.37
2018-07-10T15:27:41.425Z,61.19
2018-07-10T15:32:29.446Z,61.67
2018-07-10T15:37:12.939Z,63.33
2018-07-10T15:41:56.607Z,63.52
2018-07-10T15:46:40.175Z,63.89
2018-07-10T15:51:23.875Z,62.96
2018-07-10T15:56:11.395Z,62.12
2018-07-10T16:00:54.919Z,63.17
2018-07-10T16:05:42.342Z,61.94
2018-07-10T16:10:27.019Z,62.56
2018-07-10T16:15:13.995Z,62.17
2018-07-10T16:20:08.895Z,62.67
2018-07-10T16:25:00.777Z,62.71
2018-07-10T16:29:45.690Z,62.99
2018-07-10T16:34:33.142Z,62.68
2018-07-10T16:39:17.099Z,63.20
2018-07-10T16:44:06.144Z,63.61
2018-07-10T16:49:05.924Z,63.33
2018-07-10T16:54:01.588Z,63.26
2018-07-10T16:58:45.157Z,62.80
2018-07-10T17:03:30.446Z,63.52
2018-07-10T17:08:15.188Z,61.56
2018-07-10T17:12:58.665Z,61.55
2018-07-10T17:17:42.170Z,61.37
2018-07-10T17:22:26.764Z,61.13
2018-07-10T17:27:10.176Z,61.21
2018-07-10T17:31:57.678Z,60.70
2018-07-10T17:36:42.455Z,61.00
2018-07-10T17:41:27.812Z,61.50
2018-07-10T17:46:12.920Z,60.54
2018-07-10T17:50:56.275Z,61.04
2018-07-10T17:55:41.049Z,62.08
2018-07-10T18:00:24.502Z,61.26
2018-07-10T18:05:12.015Z,61.85
2018-07-10T18:09:55.543Z,60.67
2018-07-10T18:14:51.954Z,61.85
2018-07-10T18:19:40.145Z,61.38
2018-07-10T18:24:24.112Z,62.09
2018-07-10T18:29:07.794Z,61.72
2018-07-10T18:34:01.264Z,63.19
2018-07-10T18:38:50.878Z,62.32
2018-07-10T18:43:37.115Z,62.84
2018-07-10T18:48:25.732Z,63.01
2018-07-10T18:53:10.905Z,62.46
2018-07-10T18:58:01.946Z,63.57
2018-07-10T19:02:53.819Z,63.51
2018-07-10T19:07:40.125Z,64.16
2018-07-10T19:12:23.769Z,63.53
2018-07-10T19:17:13.989Z,64.23
2018-07-10T19:22:02.096Z,63.57
2018-07-10T19:26:47.721Z,64.85
2018-07-10T19:31:33.844Z,64.12
2018-07-10T19:36:18.270Z,64.04
2018-07-10T19:41:01.786Z,64.61
2018-07-10T19:45:49.612Z,64.03
2018-07-10T19:50:38.853Z,63.88
2018-07-10T19:55:27.447Z,64.92
2018-07-10T20:00:10.847Z,64.80
2018-07-10T20:05:07.770Z,65.49
2018-07-10T20:09:58.293Z,66.18
2018-07-10T20:14:58.983Z,65.24
2018-07-10T20:19:48.205Z,64.70
2018-07-10T20:24:33.131Z,65.91
2018-07-10T20:29:27.548Z,66.75
2018-07-10T20:34:56.817Z,65.40
2018-07-10T20:39:40.311Z,66.23
2018-07-10T20:44:24.736Z,65.86
2018-07-10T20:49:08.229Z,66.31
2018-07-10T20:54:21.484Z,65.76
2018-07-10T20:59:13.103Z,66.06
2018-07-10T21:04:02.642Z,66.30
2018-07-10T21:09:11.469Z,66.83
2018-07-10T21:14:00.914Z,66.25
2018-07-10T21:19:21.390Z,67.05
2018-07-10T21:24:21.356Z,67.17
2018-07-10T21:29:22.629Z,68.13
2018-07-10T21:34:25.473Z,67.84
2018-07-10T21:39:16.130Z,66.96
2018-07-10T21:46:11.783Z,66.68
2018-07-10T21:50:55.324Z,68.05
2018-07-10T21:55:38.887Z,68.04
2018-07-10T22:00:32.055Z,68.79
2018-07-10T22:05:18.620Z,67.39
2018-07-10T22:10:08.340Z,68.44
2018-07-10T22:14:52.996Z,68.22
2018-07-10T22:19:39.912Z,67.69
2018-07-10T22:24:26.653Z,68.15
2018-07-10T22:29:10.948Z,68.87
2018-07-10T22:33:54.560Z,67.70
2018-07-10T22:38:38.068Z,67.81
2018-07-10T22:43:21.821Z,68.65
2018-07-10T22:48:05.323Z,68.61
2018-07-10T22:52:57.038Z,68.49
2018-07-10T22:57:40.448Z,68.38
2018-07-10T23:02:24.564Z,68.26
2018-07-10T23:07:09.027Z,68.33
2018-07-10T23:11:53.413Z,68.26
2018-07-10T23:16:40.163Z,67.63
2018-07-10T23:21:28.146Z,68.45
2018-07-10T23:26:13.860Z,67.27
2018-07-10T23:30:57.222Z,67.30
2018-07-10T23:35:42.098Z,67.36
2018-07-10T23:40:25.479Z,67.51
2018-07-10T23:45:22.056Z,67.07
